Hlavní strana
METAR-TAF:

METAR-TAF

Letiště :

Constantine, Alžírsko

zeměpisná šířka: 36-17N, zeměpisná délka: 006-37E, výška: 694 m

Aktuální stav počasí

Zpráva byla vytvořena před 40 minutami, v 17:30 UTC
Severoseverozápadní vítr 4 kt
Teplota 11°C
Vlhkost vzduchu 62%
Tlak 1031 hPa
Viditelnost 10 km a více
Žádná oblačnost pod 1500 m, nevyskytují se cumulonimby.

METAR: DABC 231730Z 33004KT CAVOK 11/04 Q1031

Čas: 19:10 (18:10 UTC)

Předpověď počasí

Zpráva byla vytvořena před 1 hodinou a 10 minutami, v 17:00 UTC
Předpověď platná od 23 v 18 UTC do 24 v 18 UTC
Severoseverozápadní vítr 8 kt
Viditelnost 10 km a více
Žádná oblačnost pod 1500 m, nevyskytují se cumulonimby.
Změna
od 23 v 19 UTC do 23 v 21 UTC
vítr z různých směrů 2 kt
Změna
od 24 v 08 UTC do 24 v 10 UTC
Západoseverozápadní vítr 6 kt

TAF: DABC 231700Z 2318/2418 34008KT CAVOK BECMG 2319/2321 VRB02KT BECMG 2408/2410 30006KT

Stav a předpovědi počasí z více než 4 000 letišť (zprávy METAR a TAF).

Červené a žluté tečky na mapě představují dostupné meteorologické stanice.

Když kurzor umístíte na tečku, zobrazí se název stanice.

Pak kliknutím zobrazíte stav a předpověď počasí.

Chcete-li změnit mapu, kliknutím na zelené tlačítko se znaménkem +mapu přiblížíte, kliknutím na zelené tlačítko se znaménkem – mapu oddálíte a kliknutím na zelené šipky přejdete na sousední mapy.


METAR-TAF: